Time;durP1;ratioP1;P1;durP2;ratioP2;P2;SDS_P1;SDS_P2;PMS_P1;PMS_P2;Temp;Humidity;BMP_temperature;BMP_pressure;BME280_temperature;BME280_humidity;BME280_pressure;Samples;Min_cycle;Max_cycle;Signal;HPM_P1;HPM_P2
2022/03/17 00:02:06;;;;;;;23.53;17.60;;;11.50;99.90;;;;;;5014986;28;20587;-77
2022/03/17 00:04:32;;;;;;;22.70;17.47;;;11.50;99.90;;;;;;5014005;28;20255;-77
2022/03/17 00:06:58;;;;;;;26.70;17.87;;;11.50;99.90;;;;;;5013558;28;20282;-77
2022/03/17 00:09:24;;;;;;;27.53;17.63;;;11.60;99.90;;;;;;5014661;28;20176;-76
2022/03/17 00:11:51;;;;;;;25.77;18.03;;;11.60;99.90;;;;;;5014189;28;20270;-77
2022/03/17 00:14:17;;;;;;;23.30;18.13;;;11.50;99.90;;;;;;5014686;28;20309;-76
2022/03/17 00:16:42;;;;;;;26.63;18.97;;;11.50;99.90;;;;;;5014304;28;20243;-77
2022/03/17 00:19:09;;;;;;;21.30;17.00;;;11.50;99.90;;;;;;5013166;28;20267;-77
2022/03/17 00:21:36;;;;;;;26.67;18.77;;;11.50;99.90;;;;;;5014513;28;20185;-78
2022/03/17 00:24:03;;;;;;;26.47;18.27;;;11.50;99.90;;;;;;5013917;28;20188;-78
2022/03/17 00:26:28;;;;;;;25.47;18.53;;;11.50;99.90;;;;;;5014110;28;20204;-78
2022/03/17 00:28:54;;;;;;;24.40;18.60;;;11.50;99.90;;;;;;5014031;28;20283;-78
2022/03/17 00:31:20;;;;;;;25.80;18.77;;;11.50;99.90;;;;;;5015423;28;20242;-79
2022/03/17 00:33:46;;;;;;;27.77;18.23;;;11.50;99.90;;;;;;5014399;28;20184;-79
2022/03/17 00:36:11;;;;;;;26.20;18.97;;;11.50;99.90;;;;;;5014236;28;20273;-79
2022/03/17 00:38:37;;;;;;;28.57;19.60;;;11.50;99.90;;;;;;5014818;28;20223;-78
2022/03/17 00:41:03;;;;;;;30.20;19.43;;;11.50;99.90;;;;;;5015151;28;20183;-78
2022/03/17 00:43:29;;;;;;;25.60;18.20;;;11.40;99.90;;;;;;5014370;28;20175;-79
2022/03/17 00:45:54;;;;;;;24.60;18.30;;;11.40;99.90;;;;;;5015644;28;20573;-78
2022/03/17 00:48:20;;;;;;;24.70;19.13;;;11.50;99.90;;;;;;5015007;28;20195;-79
2022/03/17 00:50:46;;;;;;;24.00;18.70;;;11.60;99.90;;;;;;5019891;28;20179;-79
2022/03/17 00:53:12;;;;;;;26.83;19.83;;;11.50;99.90;;;;;;5019250;28;20183;-79
2022/03/17 00:55:38;;;;;;;27.10;19.40;;;11.50;99.90;;;;;;5018755;28;20203;-78
2022/03/17 00:58:04;;;;;;;27.60;19.70;;;11.50;99.90;;;;;;5018640;28;20171;-79
2022/03/17 01:00:29;;;;;;;29.00;18.90;;;11.50;99.90;;;;;;5016746;28;20549;-78
2022/03/17 01:02:56;;;;;;;26.70;19.27;;;11.50;99.90;;;;;;5022794;28;20183;-79
2022/03/17 01:05:23;;;;;;;28.57;19.73;;;11.50;99.90;;;;;;5017704;28;20229;-78
2022/03/17 01:07:50;;;;;;;28.63;20.03;;;11.50;99.90;;;;;;5016598;28;20219;-78
2022/03/17 01:10:17;;;;;;;22.70;18.67;;;11.50;99.90;;;;;;5016167;28;20275;-78
2022/03/17 01:12:47;;;;;;;26.40;18.17;;;11.50;99.90;;;;;;5016349;28;20191;-78
2022/03/17 01:15:17;;;;;;;27.47;18.60;;;11.50;99.90;;;;;;5016138;28;20212;-78
2022/03/17 01:17:43;;;;;;;26.13;18.53;;;11.50;99.90;;;;;;5017553;28;20171;-78
2022/03/17 01:20:09;;;;;;;22.00;18.03;;;11.50;99.90;;;;;;5017569;28;20176;-78
2022/03/17 01:22:35;;;;;;;27.97;19.63;;;11.50;99.90;;;;;;5016902;28;20180;-78
2022/03/17 01:25:02;;;;;;;26.13;19.03;;;11.50;99.90;;;;;;5018728;28;20180;-78
2022/03/17 01:27:29;;;;;;;27.50;19.33;;;11.50;99.90;;;;;;5018888;28;20553;-79
2022/03/17 01:29:55;;;;;;;25.23;18.47;;;11.60;99.90;;;;;;5020072;28;20527;-79
2022/03/17 01:32:22;;;;;;;25.43;17.77;;;11.60;99.90;;;;;;5018913;28;20184;-79
2022/03/17 01:34:49;;;;;;;26.00;19.63;;;11.60;99.90;;;;;;5020460;28;20607;-80
2022/03/17 01:37:14;;;;;;;28.10;19.83;;;11.50;99.90;;;;;;5020348;28;20651;-79
2022/03/17 01:39:40;;;;;;;27.37;18.87;;;11.50;99.90;;;;;;5019986;28;20183;-79
2022/03/17 01:42:08;;;;;;;24.40;18.97;;;11.50;99.90;;;;;;5019814;28;20275;-80
2022/03/17 01:44:35;;;;;;;26.23;18.52;;;11.50;99.90;;;;;;5020071;28;20168;-79
2022/03/17 01:49:46;;;;;;;26.90;18.83;;;11.50;99.90;;;;;;5020377;28;20183;-79
2022/03/17 01:52:12;;;;;;;29.27;18.70;;;11.50;99.90;;;;;;5016750;28;20643;-78
2022/03/17 01:54:38;;;;;;;29.33;19.73;;;11.50;99.90;;;;;;5015456;28;20191;-78
2022/03/17 01:57:06;;;;;;;30.23;19.07;;;11.40;99.90;;;;;;5016648;28;20208;-78
2022/03/17 01:59:33;;;;;;;26.23;18.93;;;11.40;99.90;;;;;;5014898;28;20241;-78
2022/03/17 02:02:00;;;;;;;28.43;18.63;;;11.40;99.90;;;;;;5015933;28;20187;-78
2022/03/17 02:04:26;;;;;;;26.80;18.83;;;11.40;99.90;;;;;;5016908;28;20583;-78
2022/03/17 02:06:51;;;;;;;23.70;17.97;;;11.40;99.90;;;;;;4999080;28;20318;-78
2022/03/17 02:09:20;;;;;;;23.90;18.43;;;11.40;99.90;;;;;;5015742;28;20192;-78
2022/03/17 02:14:34;;;;;;;26.73;18.80;;;11.40;99.90;;;;;;5017041;28;20713;-78
2022/03/17 02:17:00;;;;;;;26.80;18.97;;;11.50;99.90;;;;;;5015552;28;20196;-78
2022/03/17 02:19:26;;;;;;;25.07;18.63;;;11.50;99.90;;;;;;5023092;28;20199;-77
2022/03/17 02:21:51;;;;;;;25.03;17.83;;;11.50;99.90;;;;;;5020454;28;20187;-77
2022/03/17 02:27:02;;;;;;;27.53;19.90;;;11.50;99.90;;;;;;5017359;28;20301;-78
2022/03/17 02:29:30;;;;;;;26.67;18.90;;;11.50;99.90;;;;;;5015580;28;20242;-78
2022/03/17 02:31:56;;;;;;;26.50;18.77;;;11.50;99.90;;;;;;5015507;28;20183;-78
2022/03/17 02:34:22;;;;;;;25.30;18.53;;;11.50;99.90;;;;;;5017874;28;20215;-78
2022/03/17 02:36:49;;;;;;;27.57;18.80;;;11.50;99.90;;;;;;5016001;28;20215;-79
2022/03/17 02:39:16;;;;;;;25.57;19.33;;;11.50;99.90;;;;;;5016378;28;20164;-78
2022/03/17 02:41:42;;;;;;;25.93;19.00;;;11.40;99.90;;;;;;5016337;28;20180;-78
2022/03/17 02:44:09;;;;;;;25.10;18.67;;;11.40;99.90;;;;;;5016369;28;20310;-78
2022/03/17 02:46:34;;;;;;;23.73;18.27;;;11.40;99.90;;;;;;5016009;28;20690;-78
2022/03/17 02:49:00;;;;;;;28.07;18.03;;;11.40;99.90;;;;;;5015403;28;20197;-78
2022/03/17 02:51:26;;;;;;;28.23;18.47;;;11.40;99.90;;;;;;5016381;28;20176;-78
2022/03/17 02:53:52;;;;;;;26.87;18.03;;;11.30;99.90;;;;;;5015002;28;20190;-78
2022/03/17 02:56:17;;;;;;;26.13;18.90;;;11.30;99.90;;;;;;5015165;28;20219;-77
2022/03/17 02:58:43;;;;;;;27.97;19.50;;;11.20;99.90;;;;;;5016144;28;20179;-77
2022/03/17 03:01:09;;;;;;;27.77;18.20;;;11.20;99.90;;;;;;4999952;28;20278;-78
2022/03/17 03:03:35;;;;;;;26.60;18.57;;;11.20;99.90;;;;;;5017542;28;20207;-78
2022/03/17 03:06:01;;;;;;;26.30;18.87;;;11.10;99.90;;;;;;5015828;28;20239;-77
2022/03/17 03:08:27;;;;;;;27.83;18.53;;;11.20;99.90;;;;;;5015487;28;20184;-78
2022/03/17 03:10:54;;;;;;;28.30;19.63;;;11.20;99.90;;;;;;5013521;28;20279;-78
2022/03/17 03:13:20;;;;;;;25.23;19.03;;;11.20;99.90;;;;;;5013866;28;20267;-78
2022/03/17 03:15:46;;;;;;;26.00;19.30;;;11.20;99.90;;;;;;5015432;28;20207;-78
2022/03/17 03:18:12;;;;;;;25.63;18.57;;;11.10;99.90;;;;;;5014772;28;20202;-78
2022/03/17 03:20:39;;;;;;;27.47;18.77;;;11.10;99.90;;;;;;5016686;28;20207;-79
2022/03/17 03:23:05;;;;;;;28.60;18.53;;;11.10;99.90;;;;;;5016486;28;20638;-79
2022/03/17 03:25:31;;;;;;;28.97;18.63;;;11.10;99.90;;;;;;5016218;28;20207;-78
2022/03/17 03:27:56;;;;;;;27.57;19.63;;;11.10;99.90;;;;;;5014365;28;20188;-79
2022/03/17 03:30:22;;;;;;;28.43;18.60;;;11.20;99.90;;;;;;5014425;28;20191;-78
2022/03/17 03:32:49;;;;;;;25.73;18.93;;;11.10;99.90;;;;;;5014516;28;20211;-78
2022/03/17 03:38:10;;;;;;;29.50;19.87;;;11.10;99.90;;;;;;4962854;28;20190;-79
2022/03/17 03:40:36;;;;;;;29.00;18.70;;;11.10;99.90;;;;;;5016207;28;20537;-79
2022/03/17 03:43:02;;;;;;;29.57;19.63;;;11.00;99.90;;;;;;5014986;28;20191;-79
2022/03/17 03:45:28;;;;;;;26.43;19.03;;;11.00;99.90;;;;;;5014191;28;20200;-79
2022/03/17 03:47:54;;;;;;;28.37;19.50;;;11.00;99.90;;;;;;5013941;28;20716;-78
2022/03/17 03:50:19;;;;;;;27.43;19.80;;;11.00;99.90;;;;;;5013320;28;20176;-77
2022/03/17 03:52:45;;;;;;;27.97;19.67;;;11.00;99.90;;;;;;5014768;28;20180;-78
2022/03/17 03:55:11;;;;;;;27.90;19.37;;;11.00;99.90;;;;;;5013025;28;20215;-77
2022/03/17 03:57:37;;;;;;;27.33;19.53;;;11.00;99.90;;;;;;5013361;28;20184;-77
2022/03/17 04:02:41;;;;;;;28.77;20.20;;;11.00;99.90;;;;;;5014725;28;20198;-77
2022/03/17 04:05:07;;;;;;;28.17;19.97;;;11.00;99.90;;;;;;5012918;28;20199;-77
2022/03/17 04:07:33;;;;;;;32.23;21.13;;;10.90;99.90;;;;;;5014357;28;20184;-78
2022/03/17 04:09:58;;;;;;;27.23;19.87;;;11.00;99.90;;;;;;5014266;28;20241;-78
2022/03/17 04:12:24;;;;;;;24.53;18.47;;;10.90;99.90;;;;;;5012887;28;20184;-78
2022/03/17 04:14:50;;;;;;;27.47;19.37;;;10.90;99.90;;;;;;5014489;28;20207;-78
2022/03/17 04:17:16;;;;;;;28.43;20.90;;;10.90;99.90;;;;;;5012960;28;20199;-78
2022/03/17 04:19:41;;;;;;;26.37;19.47;;;10.90;99.90;;;;;;5012926;28;20183;-77
2022/03/17 04:22:07;;;;;;;24.10;19.10;;;10.80;99.90;;;;;;5012725;28;20194;-77
2022/03/17 04:24:33;;;;;;;25.70;18.17;;;10.80;99.90;;;;;;5018399;28;20180;-77
2022/03/17 04:26:59;;;;;;;29.43;20.37;;;10.80;99.90;;;;;;5001382;28;20199;-78
2022/03/17 04:29:25;;;;;;;28.50;20.90;;;10.80;99.90;;;;;;5017391;28;20193;-78
2022/03/17 04:31:50;;;;;;;29.70;19.00;;;10.80;99.90;;;;;;5017601;28;20187;-78
2022/03/17 04:34:16;;;;;;;31.10;22.17;;;10.80;99.90;;;;;;5017476;28;20187;-78
2022/03/17 04:36:42;;;;;;;29.00;21.77;;;10.90;99.90;;;;;;5018035;28;20222;-77
2022/03/17 04:39:11;;;;;;;30.00;22.27;;;10.90;99.90;;;;;;5018335;28;20658;-78
2022/03/17 04:41:37;;;;;;;29.13;20.63;;;10.90;99.90;;;;;;5018017;28;20183;-78
2022/03/17 04:44:04;;;;;;;30.23;21.20;;;10.90;99.90;;;;;;5017834;28;20218;-79
2022/03/17 04:46:29;;;;;;;30.90;21.57;;;11.00;99.90;;;;;;5025174;28;20242;-79
2022/03/17 04:48:55;;;;;;;31.23;22.33;;;11.00;99.90;;;;;;5023621;28;20184;-79
2022/03/17 04:51:21;;;;;;;32.07;22.53;;;11.00;99.90;;;;;;5022898;28;20537;-79
2022/03/17 04:53:46;;;;;;;31.60;22.23;;;11.00;99.90;;;;;;5022464;28;20264;-79
2022/03/17 04:56:14;;;;;;;34.07;22.57;;;11.00;99.90;;;;;;5020082;28;20219;-78
2022/03/17 04:58:42;;;;;;;33.37;22.70;;;11.00;99.90;;;;;;5019001;28;20176;-78
2022/03/17 05:01:09;;;;;;;33.00;23.63;;;11.00;99.90;;;;;;5016539;28;20172;-78
2022/03/17 05:03:35;;;;;;;32.10;23.07;;;11.00;99.90;;;;;;5016509;28;20179;-78
2022/03/17 05:06:02;;;;;;;34.17;23.13;;;11.00;99.90;;;;;;5016325;28;20235;-77
2022/03/17 05:08:27;;;;;;;33.63;23.67;;;11.00;99.90;;;;;;5017808;28;20199;-77
2022/03/17 05:10:54;;;;;;;33.07;23.53;;;11.00;99.90;;;;;;4999805;28;20634;-77
2022/03/17 05:13:22;;;;;;;35.57;22.73;;;11.00;99.90;;;;;;5016554;28;20270;-77
2022/03/17 05:15:49;;;;;;;34.00;25.10;;;11.00;99.90;;;;;;5017325;28;20210;-77
2022/03/17 05:18:15;;;;;;;35.07;23.73;;;11.00;99.90;;;;;;5017409;28;20183;-77
2022/03/17 05:20:41;;;;;;;32.33;23.53;;;11.00;99.90;;;;;;5018544;28;20176;-77
2022/03/17 05:23:10;;;;;;;34.93;24.97;;;11.00;99.90;;;;;;5020187;28;20255;-77
2022/03/17 05:25:40;;;;;;;34.90;24.30;;;11.00;99.90;;;;;;5017782;28;20257;-77
2022/03/17 05:28:08;;;;;;;34.70;25.47;;;11.00;99.90;;;;;;5017942;28;20202;-77
2022/03/17 05:30:34;;;;;;;34.37;23.70;;;11.00;99.90;;;;;;5016698;28;20183;-77
2022/03/17 05:33:01;;;;;;;33.13;23.80;;;10.90;99.90;;;;;;5016104;28;20180;-79
2022/03/17 05:35:27;;;;;;;35.03;24.50;;;10.90;99.90;;;;;;5015099;28;20222;-78
2022/03/17 05:37:53;;;;;;;34.73;24.53;;;10.80;99.90;;;;;;5016305;28;20184;-78
2022/03/17 05:40:19;;;;;;;38.63;26.80;;;10.80;99.90;;;;;;5016077;28;20176;-79
2022/03/17 05:42:49;;;;;;;36.70;25.53;;;10.80;99.90;;;;;;5017384;28;20521;-77
2022/03/17 05:45:16;;;;;;;37.23;25.20;;;10.80;99.90;;;;;;5017201;28;20191;-77
2022/03/17 05:47:47;;;;;;;38.37;25.83;;;10.70;99.90;;;;;;5019723;28;20184;-78
2022/03/17 05:50:16;;;;;;;36.97;25.73;;;10.70;99.90;;;;;;5019186;28;20176;-78
2022/03/17 05:52:43;;;;;;;38.63;26.37;;;10.60;99.90;;;;;;5018464;28;20180;-79
2022/03/17 05:55:14;;;;;;;37.60;25.80;;;10.60;99.90;;;;;;5017981;28;20207;-78
2022/03/17 05:57:41;;;;;;;36.93;24.50;;;10.50;99.90;;;;;;5015733;28;20180;-78
2022/03/17 06:00:09;;;;;;;37.63;26.80;;;10.40;99.90;;;;;;5015719;28;20186;-77
2022/03/17 06:02:35;;;;;;;42.47;26.70;;;10.30;99.90;;;;;;5015997;28;20183;-78
2022/03/17 06:05:02;;;;;;;36.90;27.30;;;10.20;99.90;;;;;;5016557;28;20191;-77
2022/03/17 06:07:41;;;;;;;38.67;26.73;;;10.20;99.90;;;;;;5017598;28;20204;-77
2022/03/17 06:10:09;;;;;;;42.23;28.33;;;10.10;99.90;;;;;;5016679;28;20191;-77
2022/03/17 06:12:36;;;;;;;39.33;27.73;;;10.00;99.90;;;;;;5023000;28;20184;-79
2022/03/17 06:15:02;;;;;;;41.13;27.70;;;9.90;99.90;;;;;;5019480;28;20226;-79
2022/03/17 06:17:48;;;;;;;43.87;29.43;;;9.80;99.90;;;;;;5032257;28;20179;-79
2022/03/17 06:20:23;;;;;;;44.60;29.77;;;9.80;99.90;;;;;;5019277;28;20172;-78
2022/03/17 06:22:50;;;;;;;44.90;30.63;;;9.70;99.90;;;;;;5017214;28;20614;-78
2022/03/17 06:25:17;;;;;;;45.57;30.50;;;9.70;99.90;;;;;;5018418;28;20239;-78
2022/03/17 06:27:44;;;;;;;48.43;30.17;;;9.70;99.90;;;;;;5017409;28;20183;-79
2022/03/17 06:30:18;;;;;;;43.50;30.20;;;9.70;99.90;;;;;;5015624;28;20555;-79
2022/03/17 06:32:45;;;;;;;45.23;31.63;;;9.60;99.90;;;;;;5015777;28;20183;-79
2022/03/17 06:35:17;;;;;;;44.70;29.93;;;9.60;99.90;;;;;;5015304;28;20239;-78
2022/03/17 06:37:45;;;;;;;49.30;31.60;;;9.60;99.90;;;;;;5015420;28;20180;-78
2022/03/17 06:40:12;;;;;;;45.00;30.73;;;9.50;99.90;;;;;;5015963;28;20532;-79
2022/03/17 06:42:38;;;;;;;52.90;32.60;;;9.50;99.90;;;;;;5015791;28;20175;-80
2022/03/17 06:45:04;;;;;;;46.37;30.43;;;9.50;99.90;;;;;;5016055;28;20583;-81
2022/03/17 06:47:29;;;;;;;45.73;31.43;;;9.40;99.90;;;;;;5016331;28;20569;-80
2022/03/17 06:49:55;;;;;;;46.47;31.90;;;9.30;99.90;;;;;;5016720;28;20271;-80
2022/03/17 06:52:22;;;;;;;51.87;35.00;;;9.30;99.90;;;;;;5019576;28;20188;-81
2022/03/17 06:54:51;;;;;;;51.30;34.70;;;9.20;99.90;;;;;;5019746;28;20183;-81
2022/03/17 06:57:17;;;;;;;58.77;36.27;;;9.20;99.90;;;;;;5015767;28;20206;-79
2022/03/17 06:59:47;;;;;;;57.30;36.87;;;9.10;99.90;;;;;;5015219;28;20214;-79
2022/03/17 07:02:12;;;;;;;58.40;36.57;;;9.00;99.90;;;;;;5016362;28;20551;-79
2022/03/17 07:04:39;;;;;;;62.90;37.63;;;9.00;99.90;;;;;;5015328;28;20176;-79
2022/03/17 07:07:04;;;;;;;61.13;36.50;;;8.90;99.90;;;;;;5016661;28;20210;-79
2022/03/17 07:09:30;;;;;;;64.20;38.30;;;8.80;99.90;;;;;;5015913;28;20255;-79
2022/03/17 07:11:56;;;;;;;60.67;36.30;;;8.80;99.90;;;;;;5014573;28;20557;-79
2022/03/17 07:14:21;;;;;;;65.00;37.57;;;8.80;99.90;;;;;;5014411;28;20180;-79
2022/03/17 07:16:47;;;;;;;68.00;39.77;;;8.80;99.90;;;;;;5015778;28;20266;-78
2022/03/17 07:19:13;;;;;;;66.43;40.63;;;8.70;99.90;;;;;;5014873;28;20270;-79
2022/03/17 07:21:39;;;;;;;74.97;41.60;;;8.70;99.90;;;;;;5014129;28;20203;-79
2022/03/17 07:24:06;;;;;;;73.70;44.00;;;8.70;99.90;;;;;;5015443;28;20172;-78
2022/03/17 07:26:32;;;;;;;70.07;41.60;;;8.70;99.90;;;;;;5013762;28;20290;-76
2022/03/17 07:28:57;;;;;;;79.97;44.10;;;8.80;99.90;;;;;;5015202;28;20183;-78
2022/03/17 07:31:26;;;;;;;75.83;42.90;;;8.80;99.90;;;;;;5015780;28;20538;-79
2022/03/17 07:33:53;;;;;;;69.90;41.30;;;8.80;99.90;;;;;;5013967;28;20191;-79
2022/03/17 07:36:19;;;;;;;71.40;41.50;;;8.80;99.90;;;;;;5014037;28;20238;-79
2022/03/17 07:38:44;;;;;;;75.77;41.83;;;8.80;99.90;;;;;;5014438;28;20218;-79
2022/03/17 07:41:10;;;;;;;66.33;37.57;;;8.80;99.90;;;;;;5014705;28;20179;-79
2022/03/17 07:43:36;;;;;;;59.93;35.03;;;8.80;99.90;;;;;;5015673;28;20184;-78
2022/03/17 07:46:01;;;;;;;51.17;28.77;;;8.80;99.90;;;;;;5014058;28;20204;-78
2022/03/17 07:48:27;;;;;;;46.73;27.23;;;8.70;99.90;;;;;;5013950;28;20203;-78
2022/03/17 07:50:53;;;;;;;43.27;27.23;;;8.60;99.90;;;;;;5015012;28;20207;-78
2022/03/17 07:53:18;;;;;;;45.53;27.70;;;8.50;99.90;;;;;;4997407;28;20184;-79
2022/03/17 07:55:45;;;;;;;43.53;26.10;;;8.50;99.90;;;;;;5013380;28;20219;-79
2022/03/17 07:58:11;;;;;;;43.97;27.13;;;8.40;99.90;;;;;;5013192;28;20176;-78
2022/03/17 08:00:42;;;;;;;40.63;25.20;;;8.30;99.90;;;;;;5015438;28;20179;-78
2022/03/17 08:03:08;;;;;;;43.73;24.20;;;8.30;99.90;;;;;;5015605;28;20176;-78
2022/03/17 08:05:34;;;;;;;44.70;27.20;;;8.30;99.90;;;;;;5015593;28;20245;-78
2022/03/17 08:08:00;;;;;;;46.83;25.40;;;8.20;99.90;;;;;;5015575;28;20187;-78
2022/03/17 08:10:28;;;;;;;44.37;24.20;;;8.20;99.90;;;;;;5014478;28;20187;-78
2022/03/17 08:12:54;;;;;;;42.80;24.17;;;8.20;99.90;;;;;;5016164;28;20548;-78
2022/03/17 08:15:21;;;;;;;40.73;24.33;;;8.20;99.90;;;;;;5014062;28;20208;-78
2022/03/17 08:17:46;;;;;;;40.40;23.23;;;8.10;99.90;;;;;;5013563;28;20266;-78
2022/03/17 08:20:12;;;;;;;40.23;22.43;;;8.10;99.90;;;;;;5014910;28;20204;-78
2022/03/17 08:22:40;;;;;;;41.37;24.40;;;8.10;99.90;;;;;;5014902;28;20246;-78
2022/03/17 08:25:06;;;;;;;49.03;23.93;;;8.10;99.90;;;;;;5014757;28;20222;-78
2022/03/17 08:27:32;;;;;;;41.33;23.50;;;8.10;99.90;;;;;;5013346;28;20183;-78
2022/03/17 08:29:57;;;;;;;48.37;27.47;;;8.10;99.90;;;;;;4997067;28;20279;-78
2022/03/17 08:32:23;;;;;;;40.77;26.27;;;8.10;99.90;;;;;;5014701;28;20184;-78
2022/03/17 08:34:49;;;;;;;46.60;28.23;;;8.10;99.90;;;;;;5013195;28;20646;-78
2022/03/17 08:37:15;;;;;;;46.83;27.23;;;8.00;99.90;;;;;;5014676;28;20194;-78
2022/03/17 08:39:41;;;;;;;54.17;30.23;;;8.00;99.90;;;;;;5013396;28;20188;-78
2022/03/17 08:42:07;;;;;;;44.57;26.93;;;8.00;99.90;;;;;;5012912;28;20663;-78
2022/03/17 08:44:32;;;;;;;49.43;27.27;;;8.00;99.90;;;;;;5014655;28;20707;-78
2022/03/17 08:49:42;;;;;;;48.30;27.53;;;8.00;99.90;;;;;;5015202;28;20638;-78
2022/03/17 08:52:09;;;;;;;50.97;27.97;;;8.00;99.90;;;;;;5013617;28;20180;-77
2022/03/17 08:54:35;;;;;;;39.10;25.37;;;7.90;99.90;;;;;;5013743;28;20180;-77
2022/03/17 08:57:03;;;;;;;39.70;23.10;;;7.90;99.90;;;;;;5013436;28;20218;-77
2022/03/17 08:59:34;;;;;;;27.93;19.87;;;7.80;99.90;;;;;;5014687;28;20166;-77
2022/03/17 09:02:01;;;;;;;27.00;17.63;;;7.70;99.90;;;;;;5014887;28;20165;-77
2022/03/17 09:04:28;;;;;;;23.90;16.53;;;7.70;99.90;;;;;;5013295;28;20267;-77
2022/03/17 09:07:00;;;;;;;25.93;17.10;;;7.80;99.90;;;;;;5014732;28;20215;-77
2022/03/17 09:09:36;;;;;;;24.87;16.20;;;7.80;99.90;;;;;;4997293;28;20175;-77
2022/03/17 09:12:05;;;;;;;21.87;14.87;;;7.80;99.90;;;;;;5018618;28;20164;-77
2022/03/17 09:14:36;;;;;;;22.27;14.97;;;7.80;99.90;;;;;;5018538;28;20176;-77
2022/03/17 09:17:02;;;;;;;20.43;13.50;;;7.80;99.90;;;;;;5020927;28;20218;-77
2022/03/17 09:19:28;;;;;;;23.67;12.67;;;7.90;99.90;;;;;;5024082;28;20172;-78
2022/03/17 09:21:54;;;;;;;20.07;13.63;;;7.80;99.90;;;;;;5017413;28;20263;-78
2022/03/17 09:24:19;;;;;;;22.77;15.50;;;7.80;99.90;;;;;;5017369;28;20196;-78
2022/03/17 09:26:45;;;;;;;22.30;16.17;;;7.80;99.90;;;;;;5018122;28;20681;-78
2022/03/17 09:29:11;;;;;;;19.20;15.33;;;7.80;99.90;;;;;;5016867;28;20180;-78
2022/03/17 09:31:37;;;;;;;25.77;16.07;;;7.70;99.90;;;;;;5017095;28;20187;-78
2022/03/17 09:34:03;;;;;;;25.57;14.97;;;7.70;99.90;;;;;;5016925;28;20184;-78
2022/03/17 09:36:29;;;;;;;20.30;14.20;;;7.70;99.90;;;;;;5017095;28;20769;-78
2022/03/17 09:41:39;;;;;;;20.90;13.23;;;7.60;99.90;;;;;;5019893;28;20171;-78
2022/03/17 09:44:05;;;;;;;17.47;11.80;;;7.60;99.90;;;;;;5022069;28;20172;-78
2022/03/17 09:46:32;;;;;;;17.20;12.10;;;7.60;99.90;;;;;;5020657;28;20208;-77
2022/03/17 09:49:01;;;;;;;14.90;10.47;;;7.70;99.90;;;;;;5017667;28;20612;-77
2022/03/17 09:51:28;;;;;;;19.20;12.00;;;7.70;99.90;;;;;;5018766;28;20172;-78
2022/03/17 09:53:58;;;;;;;17.30;12.90;;;7.70;99.90;;;;;;5017950;28;20254;-77
2022/03/17 09:56:24;;;;;;;18.30;12.13;;;7.70;99.90;;;;;;5016472;28;20599;-77
2022/03/17 09:58:59;;;;;;;17.70;11.50;;;7.70;99.90;;;;;;5018063;28;20180;-77
2022/03/17 10:01:28;;;;;;;17.00;11.37;;;7.70;99.90;;;;;;5016361;28;20187;-77
2022/03/17 10:04:06;;;;;;;17.23;10.60;;;7.80;99.90;;;;;;5023132;28;20681;-77
2022/03/17 10:06:32;;;;;;;15.87;10.80;;;7.80;99.90;;;;;;5024199;28;20585;-77
2022/03/17 10:08:59;;;;;;;15.07;9.87;;;7.90;99.90;;;;;;5025369;28;20186;-77
2022/03/17 10:11:32;;;;;;;15.47;10.10;;;8.00;99.90;;;;;;5018931;28;20188;-77
2022/03/17 10:13:59;;;;;;;14.33;9.93;;;8.00;99.90;;;;;;5017063;28;20311;-77
2022/03/17 10:16:28;;;;;;;14.57;9.70;;;8.00;99.90;;;;;;5016104;28;20230;-77
2022/03/17 10:19:03;;;;;;;12.07;8.20;;;8.00;99.90;;;;;;5016266;28;20168;-77
2022/03/17 10:21:29;;;;;;;16.43;8.90;;;8.00;99.90;;;;;;4998063;28;20232;-78
2022/03/17 10:24:04;;;;;;;12.00;8.80;;;8.00;99.90;;;;;;4998524;28;20187;-77
2022/03/17 10:26:42;;;;;;;17.23;9.10;;;8.00;99.90;;;;;;4998412;28;20203;-77
2022/03/17 10:29:19;;;;;;;15.27;9.60;;;8.00;99.90;;;;;;5016536;28;20187;-78
2022/03/17 10:32:06;;;;;;;12.33;9.40;;;8.00;99.90;;;;;;5015993;28;20164;-77
2022/03/17 10:34:33;;;;;;;12.07;9.20;;;7.90;99.90;;;;;;4998400;28;20183;-77
2022/03/17 10:37:09;;;;;;;16.00;10.57;;;8.00;99.90;;;;;;5015833;28;20208;-77
2022/03/17 10:39:42;;;;;;;11.97;8.70;;;8.10;99.90;;;;;;5014913;28;20266;-77
2022/03/17 10:42:15;;;;;;;13.07;8.50;;;8.10;99.90;;;;;;4998695;28;20233;-77
2022/03/17 10:44:44;;;;;;;17.67;8.47;;;8.10;99.90;;;;;;5015958;28;20195;-77
2022/03/17 10:47:10;;;;;;;16.50;8.43;;;8.10;99.90;;;;;;5014656;28;20273;-77
2022/03/17 10:49:37;;;;;;;11.03;7.60;;;8.10;99.90;;;;;;5015966;28;20646;-77
2022/03/17 10:52:03;;;;;;;10.07;6.80;;;8.10;99.90;;;;;;4998440;28;20253;-77
2022/03/17 10:54:29;;;;;;;10.57;7.43;;;8.20;99.90;;;;;;4998009;28;20270;-77
2022/03/17 10:57:03;;;;;;;9.13;6.40;;;8.20;99.90;;;;;;5016405;28;20303;-78
2022/03/17 10:59:47;;;;;;;10.70;6.30;;;8.10;99.90;;;;;;4997950;28;20658;-78
2022/03/17 11:02:17;;;;;;;9.27;6.40;;;8.10;99.90;;;;;;5015753;28;20176;-78
2022/03/17 11:04:44;;;;;;;12.40;6.67;;;8.10;99.90;;;;;;4997831;28;20188;-78
2022/03/17 11:07:15;;;;;;;16.00;6.70;;;8.10;99.90;;;;;;4998096;28;20219;-78
2022/03/17 11:09:46;;;;;;;9.07;6.63;;;8.10;99.90;;;;;;5017089;28;20195;-79
2022/03/17 11:12:20;;;;;;;10.07;6.37;;;8.10;99.90;;;;;;5020438;28;20168;-78
2022/03/17 11:14:50;;;;;;;15.27;6.83;;;8.10;99.90;;;;;;5019549;28;20159;-79
2022/03/17 11:17:28;;;;;;;9.93;6.87;;;8.00;99.90;;;;;;5000896;28;20277;-79
2022/03/17 11:19:58;;;;;;;12.87;6.43;;;8.00;99.90;;;;;;5019367;28;20160;-79
2022/03/17 11:22:29;;;;;;;10.13;6.40;;;8.10;99.90;;;;;;5019658;28;20667;-79
2022/03/17 11:25:17;;;;;;;16.17;6.60;;;8.10;99.90;;;;;;5001119;28;20599;-79
2022/03/17 11:27:47;;;;;;;10.27;6.17;;;8.10;99.90;;;;;;5019461;28;20175;-79
2022/03/17 11:30:17;;;;;;;10.77;6.37;;;8.20;99.90;;;;;;5019512;28;20172;-79
2022/03/17 11:32:58;;;;;;;16.57;7.10;;;8.30;99.90;;;;;;5019310;28;20160;-80
2022/03/17 11:35:29;;;;;;;10.10;6.00;;;8.40;99.90;;;;;;5020471;28;20270;-79
2022/03/17 11:38:15;;;;;;;10.60;6.27;;;8.40;99.90;;;;;;5019680;28;20153;-79
2022/03/17 11:41:23;;;;;;;13.07;6.20;;;8.40;99.90;;;;;;5018937;28;20222;-79
2022/03/17 11:43:48;;;;;;;9.73;5.40;;;8.50;99.90;;;;;;4975760;28;20284;-79
2022/03/17 11:46:22;;;;;;;7.37;5.20;;;8.50;99.90;;;;;;4975860;28;20228;-79
2022/03/17 11:48:51;;;;;;;13.07;6.20;;;8.60;99.90;;;;;;4981384;28;20258;-79
2022/03/17 11:51:18;;;;;;;10.90;5.70;;;8.60;99.90;;;;;;4998600;28;20172;-80
2022/03/17 11:53:47;;;;;;;9.57;5.63;;;8.60;99.90;;;;;;5016352;28;20190;-80
2022/03/17 11:56:37;;;;;;;6.77;5.80;;;8.50;99.90;;;;;;5016482;28;20739;-78
2022/03/17 11:59:05;;;;;;;7.57;4.97;;;8.50;99.90;;;;;;4997596;28;20187;-78
2022/03/17 12:01:49;;;;;;;7.67;5.17;;;8.40;99.90;;;;;;4998400;28;20171;-79
2022/03/17 12:04:30;;;;;;;8.93;4.60;;;8.50;99.90;;;;;;5015373;28;20152;-79
2022/03/17 12:07:18;;;;;;;7.50;4.20;;;8.40;99.90;;;;;;4997489;28;20631;-80
2022/03/17 12:09:45;;;;;;;8.30;4.60;;;8.50;99.90;;;;;;5015980;28;20156;-79
2022/03/17 12:12:25;;;;;;;8.83;4.43;;;8.60;99.90;;;;;;5016328;28;20198;-79
2022/03/17 12:14:57;;;;;;;5.50;4.03;;;8.70;99.90;;;;;;5016255;28;20164;-79
2022/03/17 12:17:25;;;;;;;7.63;4.33;;;8.80;99.90;;;;;;5016491;28;20207;-79
2022/03/17 12:20:07;;;;;;;9.07;3.80;;;9.00;99.90;;;;;;5017264;28;20191;-80
2022/03/17 12:22:33;;;;;;;8.47;4.17;;;9.10;99.90;;;;;;4999610;28;20184;-79
2022/03/17 12:25:03;;;;;;;7.47;4.20;;;9.10;99.90;;;;;;4999414;28;20182;-79
2022/03/17 12:27:34;;;;;;;7.87;4.47;;;9.10;99.90;;;;;;4999412;28;20175;-80
2022/03/17 12:30:05;;;;;;;11.77;4.83;;;9.10;99.90;;;;;;5015418;28;20660;-80
2022/03/17 12:32:37;;;;;;;13.40;4.60;;;9.10;99.90;;;;;;5017342;28;20214;-79
2022/03/17 12:35:05;;;;;;;7.63;4.73;;;9.10;99.90;;;;;;5017114;28;20156;-79
2022/03/17 12:37:33;;;;;;;6.70;4.40;;;9.10;99.90;;;;;;4999885;28;20183;-79
2022/03/17 12:40:05;;;;;;;11.87;4.73;;;9.10;99.90;;;;;;5022434;28;20234;-79
2022/03/17 12:42:37;;;;;;;6.23;4.20;;;9.30;99.90;;;;;;5016316;28;20326;-79
2022/03/17 12:45:11;;;;;;;7.27;4.20;;;9.40;99.90;;;;;;5021641;28;20175;-79
2022/03/17 12:47:40;;;;;;;5.20;4.30;;;9.60;99.90;;;;;;5005729;28;20675;-79
2022/03/17 12:50:11;;;;;;;7.07;4.40;;;9.40;99.90;;;;;;5021799;28;20219;-79
2022/03/17 12:52:40;;;;;;;10.47;5.23;;;9.40;99.90;;;;;;5004762;28;20260;-79
2022/03/17 12:55:09;;;;;;;8.47;4.73;;;9.60;99.90;;;;;;5021566;28;20172;-79
2022/03/17 12:57:37;;;;;;;6.40;4.43;;;9.60;99.90;;;;;;5004198;28;20223;-79
2022/03/17 13:00:04;;;;;;;10.47;4.53;;;9.50;99.90;;;;;;5003691;28;20183;-79